Time;durP1;ratioP1;P1;durP2;ratioP2;P2;SDS_P1;SDS_P2;PMS_P1;PMS_P2;Temp;Humidity;BMP_temperature;BMP_pressure;BME280_temperature;BME280_humidity;BME280_pressure;Samples;Min_cycle;Max_cycle;Signal;HPM_P1;HPM_P2
2022/03/03 00:01:51;;;;;;;30.00;16.90;;;;;;;-1.60;100.00;95516.97;5074394;28;20219;-61
2022/03/03 00:04:17;;;;;;;26.97;16.40;;;;;;;-1.60;100.00;95519.63;5074691;28;20255;-62
2022/03/03 00:06:42;;;;;;;33.53;18.13;;;;;;;-1.61;100.00;95515.41;5074527;28;20189;-62
2022/03/03 00:09:07;;;;;;;33.77;17.40;;;;;;;-1.66;100.00;95512.13;5074596;28;20286;-62
2022/03/03 00:11:33;;;;;;;28.03;16.30;;;;;;;-1.71;100.00;95512.31;5074782;28;20243;-62
2022/03/03 00:13:59;;;;;;;23.97;15.73;;;;;;;-1.75;100.00;95517.50;5074312;28;20209;-62
2022/03/03 00:16:25;;;;;;;25.63;16.30;;;;;;;-1.78;100.00;95517.38;5074796;28;20193;-62
2022/03/03 00:18:51;;;;;;;27.33;16.33;;;;;;;-1.84;100.00;95519.47;5074353;28;20185;-54
2022/03/03 00:21:16;;;;;;;26.70;16.33;;;;;;;-1.91;100.00;95518.38;5074053;28;20185;-58
2022/03/03 00:23:42;;;;;;;25.43;16.27;;;;;;;-1.92;100.00;95514.13;5074122;28;20196;-53
2022/03/03 00:26:07;;;;;;;28.20;16.23;;;;;;;-1.89;100.00;95516.19;5074298;28;20178;-50
2022/03/03 00:28:33;;;;;;;28.70;16.77;;;;;;;-1.88;100.00;95512.38;5074121;28;20188;-53
2022/03/03 00:30:58;;;;;;;27.77;17.43;;;;;;;-1.93;100.00;95512.56;5074143;28;20675;-52
2022/03/03 00:33:24;;;;;;;26.90;15.97;;;;;;;-1.97;100.00;95515.09;5073834;28;20284;-52
2022/03/03 00:35:49;;;;;;;27.77;16.20;;;;;;;-1.99;100.00;95513.84;5074985;28;20193;-52
2022/03/03 00:38:14;;;;;;;27.40;16.63;;;;;;;-2.06;100.00;95518.91;5073976;28;20280;-52
2022/03/03 00:40:40;;;;;;;28.20;15.83;;;;;;;-2.07;100.00;95509.31;5074127;28;20185;-54
2022/03/03 00:43:06;;;;;;;27.57;16.73;;;;;;;-2.06;100.00;95510.88;5073653;28;20272;-54
2022/03/03 00:45:33;;;;;;;24.30;14.93;;;;;;;-2.08;100.00;95523.81;5074085;28;20669;-53
2022/03/03 00:47:59;;;;;;;23.07;14.67;;;;;;;-2.11;100.00;95519.84;5073997;28;20193;-54
2022/03/03 00:50:25;;;;;;;25.00;14.80;;;;;;;-2.13;100.00;95526.63;5090912;28;20189;-53
2022/03/03 00:52:50;;;;;;;27.37;15.83;;;;;;;-2.13;100.00;95522.09;5073965;28;20239;-51
2022/03/03 00:55:15;;;;;;;25.60;15.60;;;;;;;-2.15;100.00;95528.84;5074096;28;20181;-62
2022/03/03 00:57:41;;;;;;;29.47;15.73;;;;;;;-2.18;100.00;95524.16;5074094;28;20212;-53
2022/03/03 01:00:07;;;;;;;26.57;15.53;;;;;;;-2.21;100.00;95527.44;5073688;28;20195;-46
2022/03/03 01:02:33;;;;;;;24.20;15.40;;;;;;;-2.22;100.00;95528.56;5073384;28;20247;-47
2022/03/03 01:04:59;;;;;;;25.23;14.47;;;;;;;-2.22;100.00;95528.56;5073529;28;20201;-45
2022/03/03 01:07:24;;;;;;;23.40;14.47;;;;;;;-2.26;100.00;95522.28;5073551;28;20197;-45
2022/03/03 01:09:49;;;;;;;27.73;15.93;;;;;;;-2.32;100.00;95520.88;5073314;28;20212;-45
2022/03/03 01:12:15;;;;;;;23.83;14.47;;;;;;;-2.37;100.00;95515.72;5073382;28;20230;-45
2022/03/03 01:14:40;;;;;;;26.70;14.67;;;;;;;-2.42;100.00;95514.00;5073252;28;20213;-60
2022/03/03 01:17:05;;;;;;;23.83;13.90;;;;;;;-2.43;100.00;95511.63;5073684;28;20233;-51
2022/03/03 01:19:31;;;;;;;24.13;14.23;;;;;;;-2.50;100.00;95505.97;5074419;28;20186;-48
2022/03/03 01:21:56;;;;;;;24.37;14.43;;;;;;;-2.54;100.00;95508.50;5073487;28;20191;-54
2022/03/03 01:24:22;;;;;;;23.70;13.97;;;;;;;-2.54;100.00;95507.72;5073719;28;20196;-50
2022/03/03 01:26:47;;;;;;;23.97;14.50;;;;;;;-2.54;100.00;95505.03;5073167;28;20238;-53
2022/03/03 01:29:12;;;;;;;23.77;14.23;;;;;;;-2.56;100.00;95513.38;5090094;28;20196;-51
2022/03/03 01:31:38;;;;;;;24.10;14.67;;;;;;;-2.57;100.00;95503.00;5072536;28;20262;-51
2022/03/03 01:34:03;;;;;;;23.50;13.80;;;;;;;-2.56;100.00;95513.38;5072637;28;20297;-57
2022/03/03 01:36:29;;;;;;;25.90;14.37;;;;;;;-2.58;100.00;95506.78;5073462;28;20195;-45
2022/03/03 01:38:54;;;;;;;22.83;13.77;;;;;;;-2.57;100.00;95505.69;5089854;28;20189;-48
2022/03/03 01:41:19;;;;;;;25.90;14.53;;;;;;;-2.54;100.00;95505.03;5074117;28;20188;-46
2022/03/03 01:43:45;;;;;;;23.03;14.33;;;;;;;-2.56;100.00;95507.28;5090505;28;20187;-47
2022/03/03 01:46:11;;;;;;;19.40;13.20;;;;;;;-2.59;100.00;95497.22;5072981;28;20192;-47
2022/03/03 01:48:36;;;;;;;20.30;13.57;;;;;;;-2.61;100.00;95492.19;5089840;28;20181;-48
2022/03/03 01:51:02;;;;;;;25.00;13.37;;;;;;;-2.65;100.00;95487.78;5072988;28;20207;-53
2022/03/03 01:53:27;;;;;;;23.50;13.27;;;;;;;-2.65;100.00;95493.13;5072760;28;20201;-53
2022/03/03 01:55:53;;;;;;;24.33;14.13;;;;;;;-2.65;100.00;95487.78;5073082;28;20193;-50
2022/03/03 01:58:18;;;;;;;24.10;13.77;;;;;;;-2.64;100.00;95484.00;5072842;28;20181;-50
2022/03/03 02:00:44;;;;;;;23.10;13.03;;;;;;;-2.63;100.00;95469.56;5073262;28;20526;-53
2022/03/03 02:03:10;;;;;;;21.13;13.30;;;;;;;-2.64;100.00;95470.63;5072588;28;20209;-51
2022/03/03 02:05:36;;;;;;;20.90;12.63;;;;;;;-2.68;100.00;95465.16;5072866;28;20211;-53
2022/03/03 02:08:02;;;;;;;18.03;12.60;;;;;;;-2.71;100.00;95463.13;5073165;28;20227;-53
2022/03/03 02:10:28;;;;;;;20.97;13.17;;;;;;;-2.74;100.00;95462.97;5073232;28;20185;-55
2022/03/03 02:12:53;;;;;;;21.30;13.03;;;;;;;-2.77;100.00;95456.38;5072737;28;20213;-49
2022/03/03 02:15:20;;;;;;;20.67;12.83;;;;;;;-2.80;100.00;95459.69;5072612;28;20189;-52
2022/03/03 02:17:46;;;;;;;22.37;13.07;;;;;;;-2.83;100.00;95464.88;5072566;28;20196;-53
2022/03/03 02:20:22;;;;;;;20.00;12.70;;;;;;;-2.85;100.00;95462.50;5072799;28;20189;-52
2022/03/03 02:22:49;;;;;;;21.60;12.87;;;;;;;-2.88;100.00;95457.03;5072496;28;20252;-54
2022/03/03 02:25:14;;;;;;;18.90;11.83;;;;;;;-2.90;100.00;95459.22;5072484;28;20189;-51
2022/03/03 02:27:40;;;;;;;20.53;12.00;;;;;;;-2.90;100.00;95453.88;5089238;28;20219;-45
2022/03/03 02:30:06;;;;;;;20.60;12.63;;;;;;;-2.92;100.00;95456.09;5072623;28;20185;-54
2022/03/03 02:32:31;;;;;;;21.17;12.03;;;;;;;-2.91;100.00;95455.78;5072429;28;20193;-54
2022/03/03 02:34:57;;;;;;;21.07;12.77;;;;;;;-2.92;100.00;95459.53;5072065;28;20205;-54
2022/03/03 02:37:22;;;;;;;20.83;12.57;;;;;;;-2.93;100.00;95462.53;5072197;28;20185;-55
2022/03/03 02:39:48;;;;;;;21.03;12.80;;;;;;;-3.00;100.00;95456.88;5072278;28;20185;-57
2022/03/03 02:42:13;;;;;;;20.20;12.57;;;;;;;-3.04;100.00;95454.06;5072118;28;20193;-54
2022/03/03 02:44:39;;;;;;;19.37;12.17;;;;;;;-3.07;100.00;95456.59;5074021;28;20200;-54
2022/03/03 02:47:04;;;;;;;24.23;12.40;;;;;;;-3.11;100.00;95458.28;5076243;28;20195;-61
2022/03/03 02:49:30;;;;;;;20.53;11.67;;;;;;;-3.15;100.00;95441.34;5075710;28;20196;-46
2022/03/03 02:51:55;;;;;;;18.70;11.80;;;;;;;-3.16;100.00;95440.56;5092994;28;20196;-47
2022/03/03 02:54:21;;;;;;;18.93;11.03;;;;;;;-3.17;100.00;95435.53;5075997;28;20243;-46
2022/03/03 02:59:30;;;;;;;18.07;12.17;;;;;;;-3.18;100.00;95452.66;5077346;28;20223;-46
2022/03/03 03:01:56;;;;;;;20.73;12.50;;;;;;;-3.16;100.00;95451.25;5075273;28;20217;-46
2022/03/03 03:04:21;;;;;;;18.27;11.50;;;;;;;-3.15;100.00;95446.69;5075334;28;20223;-61
2022/03/03 03:06:46;;;;;;;18.00;11.37;;;;;;;-3.16;100.00;95450.44;5075465;28;20281;-52
2022/03/03 03:09:12;;;;;;;18.60;12.30;;;;;;;-3.19;100.00;95451.06;5075550;28;20189;-61
2022/03/03 03:11:37;;;;;;;22.37;11.87;;;;;;;-3.17;100.00;95454.22;5075138;28;20245;-61
2022/03/03 03:14:02;;;;;;;18.17;11.73;;;;;;;-3.15;100.00;95452.00;5075252;28;20346;-61
2022/03/03 03:16:28;;;;;;;21.43;11.90;;;;;;;-3.17;100.00;95444.31;5075087;28;20224;-61
2022/03/03 03:18:53;;;;;;;19.93;11.60;;;;;;;-3.18;100.00;95447.34;5075652;28;20200;-62
2022/03/03 03:21:18;;;;;;;21.60;12.77;;;;;;;-3.24;100.00;95440.56;5075616;28;20272;-61
2022/03/03 03:23:43;;;;;;;19.50;12.07;;;;;;;-3.28;100.00;95437.72;5075232;28;20203;-60
2022/03/03 03:26:09;;;;;;;20.37;11.50;;;;;;;-3.32;100.00;95444.03;5075206;28;20246;-52
2022/03/03 03:28:34;;;;;;;17.57;10.13;;;;;;;-3.38;100.00;95437.28;5075568;28;20224;-49
2022/03/03 03:30:59;;;;;;;16.70;10.63;;;;;;;-3.42;100.00;95439.00;5075242;28;20211;-52
2022/03/03 03:33:25;;;;;;;15.03;9.80;;;;;;;-3.45;100.00;95443.84;5075486;28;20236;-54
2022/03/03 03:35:50;;;;;;;16.33;10.00;;;;;;;-3.51;100.00;95439.78;5075002;28;20209;-54
2022/03/03 03:38:15;;;;;;;17.37;11.03;;;;;;;-3.55;100.00;95446.06;5074738;28;20534;-48
2022/03/03 03:40:41;;;;;;;20.97;10.40;;;;;;;-3.57;100.00;95430.34;5075210;28;20197;-52
2022/03/03 03:43:06;;;;;;;15.53;10.53;;;;;;;-3.55;100.00;95438.84;5074917;28;20243;-47
2022/03/03 03:45:33;;;;;;;18.27;12.23;;;;;;;-3.57;100.00;95435.69;5074700;28;20238;-58
2022/03/03 03:47:59;;;;;;;19.50;12.00;;;;;;;-3.58;100.00;95428.78;5075191;28;20193;-57
2022/03/03 03:50:25;;;;;;;18.23;11.23;;;;;;;-3.55;100.00;95436.19;5075510;28;20197;-57
2022/03/03 03:52:50;;;;;;;18.50;11.60;;;;;;;-3.55;100.00;95425.50;5074877;28;20185;-58
2022/03/03 03:55:16;;;;;;;17.17;10.57;;;;;;;-3.57;100.00;95427.69;5074237;28;20185;-57
2022/03/03 03:57:41;;;;;;;14.90;10.40;;;;;;;-3.61;100.00;95423.28;5074632;28;20185;-57
2022/03/03 04:00:10;;;;;;;18.60;11.23;;;;;;;-3.66;100.00;95416.25;5074937;28;20185;-62
2022/03/03 04:02:35;;;;;;;18.20;10.60;;;;;;;-3.69;100.00;95414.19;5074186;28;20346;-53
2022/03/03 04:05:01;;;;;;;17.13;10.40;;;;;;;-3.70;100.00;95412.63;5074770;28;20231;-53
2022/03/03 04:07:26;;;;;;;18.30;10.70;;;;;;;-3.68;100.00;95412.31;5074496;28;20260;-54
2022/03/03 04:09:51;;;;;;;18.03;10.33;;;;;;;-3.68;100.00;95402.41;5074525;28;20189;-54
2022/03/03 04:12:17;;;;;;;17.37;10.90;;;;;;;-3.67;100.00;95403.97;5074343;28;20246;-51
2022/03/03 04:14:42;;;;;;;17.10;10.60;;;;;;;-3.67;100.00;95393.31;5074127;28;20304;-54
2022/03/03 04:17:07;;;;;;;18.60;9.80;;;;;;;-3.68;100.00;95397.09;5075152;28;20283;-61
2022/03/03 04:19:33;;;;;;;13.90;9.80;;;;;;;-3.66;100.00;95396.78;5074229;28;20197;-62
2022/03/03 04:21:58;;;;;;;15.93;10.23;;;;;;;-3.63;100.00;95406.81;5074856;28;20189;-62
2022/03/03 04:24:23;;;;;;;17.80;10.70;;;;;;;-3.59;100.00;95405.91;5074502;28;20223;-62
2022/03/03 04:26:49;;;;;;;16.17;10.00;;;;;;;-3.55;100.00;95403.38;5074582;28;20291;-61
2022/03/03 04:29:14;;;;;;;15.77;9.67;;;;;;;-3.59;100.00;95394.44;5074783;28;20181;-62
2022/03/03 04:31:39;;;;;;;15.53;9.73;;;;;;;-3.63;100.00;95396.94;5074087;28;20262;-61
2022/03/03 04:34:05;;;;;;;15.70;10.10;;;;;;;-3.62;100.00;95390.50;5073886;28;20240;-61
2022/03/03 04:36:30;;;;;;;14.83;9.60;;;;;;;-3.64;100.00;95390.03;5074163;28;20173;-54
2022/03/03 04:38:55;;;;;;;16.63;9.47;;;;;;;-3.69;100.00;95389.41;5073713;28;20223;-52
2022/03/03 04:41:21;;;;;;;17.67;10.27;;;;;;;-3.76;100.00;95387.22;5073777;28;20180;-48
2022/03/03 04:43:46;;;;;;;16.63;9.67;;;;;;;-3.79;100.00;95385.16;5073635;28;20181;-54
2022/03/03 04:46:12;;;;;;;15.70;10.13;;;;;;;-3.83;100.00;95384.22;5074027;28;20189;-49
2022/03/03 04:48:37;;;;;;;16.63;10.47;;;;;;;-3.83;100.00;95378.88;5073729;28;20181;-51
2022/03/03 04:51:03;;;;;;;15.70;10.00;;;;;;;-3.85;100.00;95381.09;5073970;28;20185;-53
2022/03/03 04:53:30;;;;;;;15.73;10.27;;;;;;;-3.85;100.00;95380.31;5090450;28;20205;-52
2022/03/03 04:55:56;;;;;;;16.50;10.17;;;;;;;-3.91;100.00;95387.66;5090938;28;20184;-44
2022/03/03 04:58:22;;;;;;;15.00;10.23;;;;;;;-3.90;100.00;95383.91;5073528;28;20222;-50
2022/03/03 05:00:47;;;;;;;16.80;10.20;;;;;;;-3.86;100.00;95392.84;5074674;28;20228;-52
2022/03/03 05:03:13;;;;;;;21.10;12.40;;;;;;;-3.88;100.00;95392.38;5074579;28;20216;-51
2022/03/03 05:05:39;;;;;;;14.10;9.93;;;;;;;-3.89;100.00;95385.47;5073824;28;20188;-52
2022/03/03 05:08:04;;;;;;;23.70;13.10;;;;;;;-3.89;100.00;95385.47;5072631;28;20659;-52
2022/03/03 05:10:30;;;;;;;16.07;9.63;;;;;;;-3.88;100.00;95395.03;5073384;28;20189;-51
2022/03/03 05:12:55;;;;;;;17.03;10.53;;;;;;;-3.92;100.00;95396.78;5073350;28;20193;-62
2022/03/03 05:15:20;;;;;;;19.30;10.20;;;;;;;-3.98;100.00;95403.34;5073990;28;20192;-56
2022/03/03 05:17:46;;;;;;;16.80;10.07;;;;;;;-4.00;100.00;95394.84;5090190;28;20196;-52
2022/03/03 05:20:13;;;;;;;14.23;9.67;;;;;;;-4.01;100.00;95387.16;5073389;28;20185;-52
2022/03/03 05:22:38;;;;;;;14.33;9.83;;;;;;;-4.04;100.00;95383.25;5073545;28;20177;-53
2022/03/03 05:25:04;;;;;;;15.27;9.53;;;;;;;-4.03;100.00;95384.03;5073382;28;20246;-50
2022/03/03 05:27:29;;;;;;;15.47;10.03;;;;;;;-4.04;100.00;95375.25;5073235;28;20177;-52
2022/03/03 05:29:55;;;;;;;16.23;10.37;;;;;;;-4.05;100.00;95371.03;5073580;28;20173;-50
2022/03/03 05:32:20;;;;;;;19.60;10.23;;;;;;;-4.03;100.00;95370.72;5073378;28;20230;-45
2022/03/03 05:34:45;;;;;;;18.43;13.20;;;;;;;-4.03;100.00;95374.16;5072914;28;20262;-45
2022/03/03 05:37:13;;;;;;;19.80;14.00;;;;;;;-4.03;100.00;95373.38;5073130;28;20189;-46
2022/03/03 05:39:39;;;;;;;19.83;13.27;;;;;;;-4.01;100.00;95366.63;5073420;28;20269;-44
2022/03/03 05:42:05;;;;;;;16.63;11.67;;;;;;;-3.99;100.00;95361.78;5073333;28;20185;-45
2022/03/03 05:44:31;;;;;;;18.67;11.50;;;;;;;-3.99;100.00;95358.31;5072508;28;20193;-48
2022/03/03 05:46:58;;;;;;;19.07;11.43;;;;;;;-3.96;100.00;95350.47;5073571;28;20224;-44
2022/03/03 05:49:23;;;;;;;18.70;11.73;;;;;;;-3.93;100.00;95351.75;5073112;28;20257;-52
2022/03/03 05:51:49;;;;;;;21.83;10.73;;;;;;;-3.90;100.00;95353.78;5072864;28;20248;-62
2022/03/03 05:54:14;;;;;;;19.37;10.97;;;;;;;-3.89;100.00;95352.69;5072682;28;20276;-44
2022/03/03 05:56:45;;;;;;;19.40;11.13;;;;;;;-3.87;100.00;95361.94;5072783;28;20185;-45
2022/03/03 05:59:13;;;;;;;17.20;11.23;;;;;;;-3.75;100.00;95353.34;5072606;28;20315;-45
2022/03/03 06:01:41;;;;;;;16.70;10.50;;;;;;;-3.70;100.00;95351.28;5072642;28;20182;-45
2022/03/03 06:04:12;;;;;;;17.67;10.27;;;;;;;-3.69;100.00;95342.19;5073474;28;20181;-46
2022/03/03 06:06:38;;;;;;;14.87;10.30;;;;;;;-3.67;100.00;95350.63;5072110;28;20260;-45
2022/03/03 06:09:05;;;;;;;20.30;11.37;;;;;;;-3.62;100.00;95347.03;5089107;28;20208;-53
2022/03/03 06:11:30;;;;;;;20.20;11.17;;;;;;;-3.52;100.00;95355.53;5072475;28;20189;-55
2022/03/03 06:14:05;;;;;;;26.33;14.50;;;;;;;-2.98;100.00;95351.34;5072318;28;20213;-54
2022/03/03 06:16:32;;;;;;;24.53;13.87;;;;;;;-2.04;100.00;95338.28;5072733;28;20193;-54
2022/03/03 06:18:59;;;;;;;19.47;11.83;;;;;;;-0.97;100.00;95349.84;5075098;28;20188;-56
2022/03/03 06:21:24;;;;;;;21.53;11.17;;;;;;;-0.01;100.00;95339.16;5076242;28;20189;-56
2022/03/03 06:23:49;;;;;;;18.73;11.23;;;;;;;0.76;100.00;95351.41;5075962;28;20218;-56
2022/03/03 06:26:18;;;;;;;17.73;10.77;;;;;;;1.45;100.00;95352.50;5092969;28;20235;-62
2022/03/03 06:28:44;;;;;;;17.77;10.83;;;;;;;2.01;100.00;95353.88;5075872;28;20184;-46
2022/03/03 06:31:10;;;;;;;17.30;10.87;;;;;;;2.28;100.00;95350.28;5075876;28;20220;-54
2022/03/03 06:33:36;;;;;;;18.10;10.20;;;;;;;2.55;100.00;95349.31;5075906;28;20217;-53
2022/03/03 06:36:02;;;;;;;13.30;10.20;;;;;;;3.37;100.00;95347.09;5076053;28;20181;-55
2022/03/03 06:38:28;;;;;;;15.43;10.17;;;;;;;3.99;100.00;95337.72;5075617;28;20209;-55
2022/03/03 06:40:55;;;;;;;15.20;10.73;;;;;;;4.34;100.00;95324.75;5093205;28;20237;-52
2022/03/03 06:43:20;;;;;;;16.07;10.27;;;;;;;4.41;100.00;95324.84;5075762;28;20188;-51
2022/03/03 06:45:46;;;;;;;15.27;11.13;;;;;;;4.40;99.24;95331.41;5076122;28;20176;-53
2022/03/03 06:48:11;;;;;;;15.60;11.50;;;;;;;4.47;99.35;95334.16;5076137;28;20204;-45
2022/03/03 06:50:39;;;;;;;18.53;11.57;;;;;;;4.81;94.52;95324.97;5075855;28;20192;-50
2022/03/03 06:53:07;;;;;;;23.80;11.60;;;;;;;5.24;92.07;95318.94;5075899;28;22132;-46
2022/03/03 06:55:33;;;;;;;13.57;11.57;;;;;;;5.86;88.10;95317.97;5075538;28;20268;-50
2022/03/03 06:57:59;;;;;;;19.40;11.50;;;;;;;6.16;84.52;95313.97;5075741;28;20210;-45
2022/03/03 07:00:27;;;;;;;14.43;10.93;;;;;;;6.48;81.68;95308.75;5092531;28;20188;-47
2022/03/03 07:02:53;;;;;;;14.07;10.63;;;;;;;6.57;78.86;95311.91;5075140;28;20200;-60
2022/03/03 07:05:20;;;;;;;19.60;11.47;;;;;;;7.02;76.80;95311.34;5075401;28;20259;-60
2022/03/03 07:07:47;;;;;;;16.80;10.77;;;;;;;7.28;74.93;95319.19;5076317;28;20196;-56
2022/03/03 07:10:14;;;;;;;13.77;11.00;;;;;;;7.58;71.21;95308.75;5075306;28;20191;-55
2022/03/03 07:12:41;;;;;;;14.43;10.53;;;;;;;7.74;70.36;95308.41;5075047;28;20180;-55
2022/03/03 07:15:08;;;;;;;12.33;10.30;;;;;;;7.92;69.36;95304.56;5075386;28;20318;-56
2022/03/03 07:17:47;;;;;;;20.33;10.47;;;;;;;7.75;68.47;95305.31;5075070;28;20185;-57
2022/03/03 07:20:29;;;;;;;18.37;11.23;;;;;;;8.32;68.84;95306.91;5075304;28;20185;-54
2022/03/03 07:23:04;;;;;;;20.20;10.10;;;;;;;9.03;64.94;95294.66;5075358;28;20196;-59
2022/03/03 07:25:51;;;;;;;19.70;10.60;;;;;;;9.39;61.60;95293.31;5075048;28;20193;-62
2022/03/03 07:28:19;;;;;;;16.80;10.13;;;;;;;9.72;58.46;95294.66;5074966;28;20246;-62
2022/03/03 07:30:48;;;;;;;16.67;9.97;;;;;;;9.51;57.52;95290.13;5074292;28;20200;-62
2022/03/03 07:33:23;;;;;;;17.60;10.80;;;;;;;9.59;59.52;95290.88;5075079;28;20201;-63
2022/03/03 07:35:50;;;;;;;20.70;9.40;;;;;;;9.29;58.01;95288.69;5074646;28;20184;-62
2022/03/03 07:38:21;;;;;;;20.03;9.73;;;;;;;9.39;58.40;95282.41;5074904;28;20276;-63
2022/03/03 07:40:48;;;;;;;17.73;9.87;;;;;;;10.72;54.97;95263.41;5074963;28;20189;-61
2022/03/03 07:43:16;;;;;;;19.53;9.77;;;;;;;11.54;49.79;95267.47;5074775;28;20185;-58
2022/03/03 07:45:42;;;;;;;13.60;9.30;;;;;;;12.50;47.11;95263.59;5075207;28;20284;-59
2022/03/03 07:48:08;;;;;;;11.90;9.03;;;;;;;12.87;44.88;95259.78;5074641;28;20181;-60
2022/03/03 07:50:39;;;;;;;13.00;8.80;;;;;;;13.42;43.35;95270.84;5074721;28;20191;-60
2022/03/03 07:53:06;;;;;;;12.70;8.90;;;;;;;13.32;43.46;95271.81;5075228;28;20220;-59
2022/03/03 07:55:34;;;;;;;15.73;9.47;;;;;;;13.35;42.19;95262.75;5074424;28;20191;-59
2022/03/03 07:58:02;;;;;;;11.57;8.77;;;;;;;13.63;41.80;95264.13;5074730;28;20217;-57
2022/03/03 08:00:30;;;;;;;12.67;8.47;;;;;;;13.93;41.10;95255.56;5074359;28;20268;-52
2022/03/03 08:02:59;;;;;;;12.50;8.53;;;;;;;13.27;41.24;95267.59;5074686;28;20200;-50
2022/03/03 08:05:27;;;;;;;13.40;8.70;;;;;;;13.69;40.76;95273.41;5074374;28;20266;-52
2022/03/03 08:07:55;;;;;;;12.53;8.27;;;;;;;14.62;40.00;95264.09;5075654;28;20181;-51
2022/03/03 08:10:21;;;;;;;12.10;8.43;;;;;;;15.26;38.77;95277.66;5074313;28;20181;-52
2022/03/03 08:12:54;;;;;;;12.50;8.57;;;;;;;15.40;37.54;95274.53;5074157;28;20234;-47
2022/03/03 08:15:20;;;;;;;10.30;8.07;;;;;;;15.07;37.46;95295.09;5074432;28;20199;-51
2022/03/03 08:17:50;;;;;;;11.83;8.43;;;;;;;15.19;37.74;95297.13;5074376;28;20284;-49
2022/03/03 08:20:17;;;;;;;10.07;7.87;;;;;;;15.36;37.36;95290.38;5073952;28;20185;-57
2022/03/03 08:22:43;;;;;;;13.00;8.50;;;;;;;15.29;36.99;95287.81;5073921;28;20185;-57
2022/03/03 08:25:10;;;;;;;10.03;8.67;;;;;;;15.00;36.61;95289.78;5074022;28;20242;-56
2022/03/03 08:27:37;;;;;;;12.73;8.97;;;;;;;15.07;37.65;95289.59;5074434;28;20213;-56
2022/03/03 08:30:04;;;;;;;10.47;8.97;;;;;;;15.21;37.74;95289.22;5073913;28;20185;-57
2022/03/03 08:32:36;;;;;;;12.27;10.03;;;;;;;15.31;36.91;95282.66;5073820;28;20192;-56
2022/03/03 08:35:08;;;;;;;10.83;8.43;;;;;;;15.88;36.23;95276.28;5074271;28;20228;-49
2022/03/03 08:37:39;;;;;;;11.80;9.43;;;;;;;15.54;35.52;95273.34;5074378;28;20246;-59
2022/03/03 08:40:07;;;;;;;11.90;8.97;;;;;;;16.07;36.50;95273.28;5074085;28;20196;-59
2022/03/03 08:42:38;;;;;;;13.07;9.60;;;;;;;16.77;34.89;95266.69;5074335;28;20201;-59
2022/03/03 08:45:06;;;;;;;10.73;9.57;;;;;;;17.15;32.42;95273.63;5073790;28;20185;-59
2022/03/03 08:47:32;;;;;;;11.20;9.13;;;;;;;16.52;33.74;95264.00;5073764;28;20217;-59
2022/03/03 08:50:06;;;;;;;15.97;12.00;;;;;;;16.48;34.20;95263.34;5073812;28;20216;-60
2022/03/03 08:52:31;;;;;;;12.80;10.10;;;;;;;16.88;34.34;95264.34;5073760;28;20239;-58
2022/03/03 08:54:57;;;;;;;16.47;10.33;;;;;;;16.80;32.77;95263.06;5073830;28;20201;-50
2022/03/03 08:57:22;;;;;;;13.33;10.20;;;;;;;17.01;33.09;95268.59;5073790;28;20184;-56
2022/03/03 08:59:47;;;;;;;15.33;10.90;;;;;;;16.79;33.40;95256.00;5073878;28;20201;-56
2022/03/03 09:02:16;;;;;;;13.10;10.23;;;;;;;16.10;34.33;95253.13;5073235;28;20212;-53
2022/03/03 09:04:43;;;;;;;15.33;10.87;;;;;;;16.25;34.92;95248.69;5073620;28;20189;-54
2022/03/03 09:07:09;;;;;;;13.87;10.73;;;;;;;16.38;35.13;95254.97;5073525;28;20184;-56
2022/03/03 09:09:34;;;;;;;15.13;12.00;;;;;;;15.93;34.34;95248.97;5073856;28;20249;-52
2022/03/03 09:12:01;;;;;;;13.33;10.80;;;;;;;15.52;34.82;95243.50;5073925;28;20181;-58
2022/03/03 09:14:27;;;;;;;13.03;10.80;;;;;;;15.99;34.28;95233.41;5073450;28;20658;-49
2022/03/03 09:16:52;;;;;;;15.33;11.03;;;;;;;16.47;33.44;95228.72;5073429;28;20196;-46
2022/03/03 09:19:17;;;;;;;14.50;10.97;;;;;;;16.65;33.43;95223.41;5073425;28;20192;-51
2022/03/03 09:21:43;;;;;;;13.97;11.23;;;;;;;16.89;33.55;95224.53;5073290;28;20189;-52
2022/03/03 09:24:09;;;;;;;13.83;10.97;;;;;;;17.18;33.12;95227.78;5073317;28;20235;-51
2022/03/03 09:26:34;;;;;;;12.80;11.37;;;;;;;17.27;32.91;95225.09;5073494;28;20221;-47
2022/03/03 09:29:00;;;;;;;17.80;11.17;;;;;;;16.29;33.98;95230.06;5073133;28;20662;-47
2022/03/03 09:31:25;;;;;;;13.50;10.90;;;;;;;16.14;34.15;95233.72;5073159;28;20239;-54
2022/03/03 09:33:50;;;;;;;12.50;10.97;;;;;;;16.75;33.59;95227.78;5073159;28;20221;-54
2022/03/03 09:36:18;;;;;;;13.40;11.33;;;;;;;17.56;32.77;95220.84;5073125;28;20193;-55
2022/03/03 09:38:43;;;;;;;20.83;11.97;;;;;;;17.32;32.23;95227.28;5073492;28;20185;-56
2022/03/03 09:41:09;;;;;;;18.40;12.23;;;;;;;16.75;32.70;95233.28;5072973;28;20189;-55
2022/03/03 09:43:34;;;;;;;15.60;13.53;;;;;;;16.57;34.07;95228.38;5073460;28;20189;-56
2022/03/03 09:45:59;;;;;;;17.17;13.67;;;;;;;16.63;33.73;95229.34;5072913;28;20642;-52
2022/03/03 09:48:25;;;;;;;20.97;13.53;;;;;;;16.51;34.11;95229.38;5073131;28;20284;-49
2022/03/03 09:50:50;;;;;;;18.10;13.77;;;;;;;16.27;34.27;95229.75;5072988;28;20197;-46
2022/03/03 09:53:17;;;;;;;16.90;14.73;;;;;;;16.37;34.51;95227.84;5072353;28;20216;-44
2022/03/03 09:55:44;;;;;;;18.03;14.83;;;;;;;14.83;34.87;95236.03;5072904;28;20181;-46
2022/03/03 09:58:09;;;;;;;18.10;14.03;;;;;;;16.78;34.94;95226.91;5072638;28;20208;-44
2022/03/03 10:00:39;;;;;;;18.67;14.30;;;;;;;16.32;34.85;95229.16;5072433;28;20267;-45
2022/03/03 10:03:14;;;;;;;20.63;15.50;;;;;;;16.47;35.19;95240.53;5072591;28;20220;-46
2022/03/03 10:05:47;;;;;;;16.90;14.60;;;;;;;14.92;36.93;95238.94;5073206;28;20327;-47
2022/03/03 10:08:24;;;;;;;20.07;15.73;;;;;;;15.15;37.50;95224.91;5090260;28;20303;-46
2022/03/03 10:10:51;;;;;;;18.57;15.67;;;;;;;15.16;37.74;95234.69;5073040;28;20185;-45
2022/03/03 10:13:18;;;;;;;18.60;16.70;;;;;;;15.35;38.10;95228.31;5072833;28;20208;-46
2022/03/03 10:15:56;;;;;;;19.40;16.37;;;;;;;15.32;37.53;95231.91;5073611;28;20244;-45
2022/03/03 10:18:22;;;;;;;20.87;16.67;;;;;;;15.50;38.09;95223.94;5073039;28;20188;-46
2022/03/03 10:20:59;;;;;;;18.53;16.40;;;;;;;14.80;37.36;95239.66;5072722;28;20192;-45
2022/03/03 10:23:35;;;;;;;18.60;16.00;;;;;;;15.24;36.26;95233.31;5072370;28;20180;-44
2022/03/03 10:26:04;;;;;;;19.03;16.00;;;;;;;14.89;34.98;95234.31;5073038;28;20196;-56
2022/03/03 10:28:34;;;;;;;18.47;16.40;;;;;;;14.46;37.91;95227.63;5051884;28;20259;-49
2022/03/03 10:31:07;;;;;;;19.60;17.27;;;;;;;15.74;36.67;95227.88;5052131;28;20281;-51
2022/03/03 10:33:35;;;;;;;18.97;15.97;;;;;;;14.63;36.48;95218.91;5034868;28;20217;-48
2022/03/03 10:36:14;;;;;;;19.23;14.27;;;;;;;15.05;35.66;95220.47;5051769;28;20328;-50
2022/03/03 10:39:03;;;;;;;16.83;14.40;;;;;;;15.16;34.82;95226.44;5035265;28;20232;-50
2022/03/03 10:41:31;;;;;;;16.77;14.73;;;;;;;15.36;34.44;95229.84;5034642;28;20189;-48
2022/03/03 10:43:58;;;;;;;20.47;14.73;;;;;;;15.99;32.69;95216.13;5051232;28;20385;-62
2022/03/03 10:46:24;;;;;;;17.57;13.60;;;;;;;15.86;32.50;95215.34;5035061;28;20289;-51
2022/03/03 10:48:50;;;;;;;19.77;13.43;;;;;;;15.44;32.62;95216.66;5051531;28;20202;-53
2022/03/03 10:51:16;;;;;;;17.47;15.60;;;;;;;16.30;32.42;95214.31;5034760;28;20186;-54
2022/03/03 10:53:43;;;;;;;22.13;16.70;;;;;;;16.69;31.55;95204.72;5034810;28;20222;-50
2022/03/03 10:56:17;;;;;;;18.50;13.27;;;;;;;16.44;31.47;95202.84;5051701;28;20213;-53
2022/03/03 10:58:54;;;;;;;19.67;14.37;;;;;;;16.61;31.16;95195.94;5055392;28;20223;-53
2022/03/03 11:01:30;;;;;;;15.80;13.37;;;;;;;17.19;30.36;95196.22;5072262;28;20223;-57
2022/03/03 11:03:57;;;;;;;18.33;15.53;;;;;;;17.25;31.24;95191.66;5072666;28;20193;-57
2022/03/03 11:06:30;;;;;;;16.73;14.27;;;;;;;17.86;31.04;95183.41;5075129;28;20275;-54
2022/03/03 11:09:00;;;;;;;16.37;13.87;;;;;;;17.91;29.54;95180.81;5075376;28;20193;-49
2022/03/03 11:11:26;;;;;;;16.13;13.77;;;;;;;17.68;29.46;95178.59;5075804;28;20189;-48
2022/03/03 11:13:52;;;;;;;18.17;14.80;;;;;;;18.00;29.48;95174.56;5075326;28;20220;-55
2022/03/03 11:16:20;;;;;;;19.40;14.50;;;;;;;17.62;29.86;95176.84;5075621;28;20245;-52